sensor_id;sensor_type;location;lat;lon;timestamp;P1;durP1;ratioP1;P2;durP2;ratioP2
32250;SDS011;41295;48.518;9.206;2023-05-10T00:02:05;2.53;;;0.60;;
32250;SDS011;41295;48.518;9.206;2023-05-10T00:04:08;0.80;;;0.70;;
32250;SDS011;41295;48.518;9.206;2023-05-10T00:06:11;3.20;;;0.77;;
32250;SDS011;41295;48.518;9.206;2023-05-10T00:08:13;1.55;;;0.90;;
32250;SDS011;41295;48.518;9.206;2023-05-10T00:10:16;2.40;;;0.80;;
32250;SDS011;41295;48.518;9.206;2023-05-10T00:12:19;4.35;;;0.80;;
32250;SDS011;41295;48.518;9.206;2023-05-10T00:14:23;1.52;;;0.60;;
32250;SDS011;41295;48.518;9.206;2023-05-10T00:16:25;2.25;;;0.77;;
32250;SDS011;41295;48.518;9.206;2023-05-10T00:18:28;0.68;;;0.60;;
32250;SDS011;41295;48.518;9.206;2023-05-10T00:20:31;0.82;;;0.60;;
32250;SDS011;41295;48.518;9.206;2023-05-10T00:22:33;0.88;;;0.55;;
32250;SDS011;41295;48.518;9.206;2023-05-10T00:24:36;1.65;;;0.70;;
32250;SDS011;41295;48.518;9.206;2023-05-10T00:26:39;2.30;;;0.52;;
32250;SDS011;41295;48.518;9.206;2023-05-10T00:28:43;1.05;;;0.75;;
32250;SDS011;41295;48.518;9.206;2023-05-10T00:30:47;1.67;;;0.40;;
32250;SDS011;41295;48.518;9.206;2023-05-10T00:32:49;4.57;;;0.50;;
32250;SDS011;41295;48.518;9.206;2023-05-10T00:34:53;4.22;;;0.55;;
32250;SDS011;41295;48.518;9.206;2023-05-10T00:36:56;3.22;;;0.60;;
32250;SDS011;41295;48.518;9.206;2023-05-10T00:38:58;1.77;;;0.60;;
32250;SDS011;41295;48.518;9.206;2023-05-10T00:41:01;1.27;;;0.50;;
32250;SDS011;41295;48.518;9.206;2023-05-10T00:43:04;0.60;;;0.40;;
32250;SDS011;41295;48.518;9.206;2023-05-10T00:45:07;1.05;;;0.60;;
32250;SDS011;41295;48.518;9.206;2023-05-10T00:47:11;0.63;;;0.50;;
32250;SDS011;41295;48.518;9.206;2023-05-10T00:49:14;0.40;;;0.30;;
32250;SDS011;41295;48.518;9.206;2023-05-10T00:51:18;1.05;;;0.32;;
32250;SDS011;41295;48.518;9.206;2023-05-10T00:53:20;3.15;;;0.25;;
32250;SDS011;41295;48.518;9.206;2023-05-10T00:55:23;0.63;;;0.30;;
32250;SDS011;41295;48.518;9.206;2023-05-10T00:57:26;1.27;;;0.35;;
32250;SDS011;41295;48.518;9.206;2023-05-10T00:59:29;0.50;;;0.22;;
32250;SDS011;41295;48.518;9.206;2023-05-10T01:01:32;1.85;;;0.30;;
32250;SDS011;41295;48.518;9.206;2023-05-10T01:03:36;0.40;;;0.40;;
32250;SDS011;41295;48.518;9.206;2023-05-10T01:05:39;3.42;;;0.40;;
32250;SDS011;41295;48.518;9.206;2023-05-10T01:07:42;0.57;;;0.30;;
32250;SDS011;41295;48.518;9.206;2023-05-10T01:09:44;2.30;;;0.30;;
32250;SDS011;41295;48.518;9.206;2023-05-10T01:11:47;1.02;;;0.40;;
32250;SDS011;41295;48.518;9.206;2023-05-10T01:13:52;1.83;;;0.38;;
32250;SDS011;41295;48.518;9.206;2023-05-10T01:15:58;1.95;;;0.35;;
32250;SDS011;41295;48.518;9.206;2023-05-10T01:18:03;0.30;;;0.30;;
32250;SDS011;41295;48.518;9.206;2023-05-10T01:20:07;1.05;;;0.40;;
32250;SDS011;41295;48.518;9.206;2023-05-10T01:22:19;0.17;;;0.17;;
32250;SDS011;41295;48.518;9.206;2023-05-10T01:24:56;0.30;;;0.30;;
32250;SDS011;41295;48.518;9.206;2023-05-10T01:27:18;1.17;;;0.40;;
32250;SDS011;41295;48.518;9.206;2023-05-10T01:29:35;2.90;;;0.30;;
32250;SDS011;41295;48.518;9.206;2023-05-10T01:32:16;0.60;;;0.30;;
32250;SDS011;41295;48.518;9.206;2023-05-10T01:34:27;3.20;;;0.38;;
32250;SDS011;41295;48.518;9.206;2023-05-10T01:36:39;1.73;;;0.30;;
32250;SDS011;41295;48.518;9.206;2023-05-10T01:38:47;2.95;;;0.43;;
32250;SDS011;41295;48.518;9.206;2023-05-10T01:40:54;1.17;;;0.50;;
32250;SDS011;41295;48.518;9.206;2023-05-10T01:43:10;2.35;;;0.38;;
32250;SDS011;41295;48.518;9.206;2023-05-10T01:45:26;0.70;;;0.20;;
32250;SDS011;41295;48.518;9.206;2023-05-10T01:47:35;1.00;;;0.35;;
32250;SDS011;41295;48.518;9.206;2023-05-10T01:49:41;1.00;;;0.28;;
32250;SDS011;41295;48.518;9.206;2023-05-10T01:51:48;1.10;;;0.20;;
32250;SDS011;41295;48.518;9.206;2023-05-10T01:53:57;2.05;;;0.60;;
32250;SDS011;41295;48.518;9.206;2023-05-10T01:56:02;3.03;;;0.30;;
32250;SDS011;41295;48.518;9.206;2023-05-10T01:58:07;2.72;;;0.40;;
32250;SDS011;41295;48.518;9.206;2023-05-10T02:00:12;0.30;;;0.30;;
32250;SDS011;41295;48.518;9.206;2023-05-10T02:02:18;0.30;;;0.30;;
32250;SDS011;41295;48.518;9.206;2023-05-10T02:04:24;0.38;;;0.30;;
32250;SDS011;41295;48.518;9.206;2023-05-10T02:06:27;0.20;;;0.20;;
32250;SDS011;41295;48.518;9.206;2023-05-10T02:08:30;1.00;;;0.30;;
32250;SDS011;41295;48.518;9.206;2023-05-10T02:10:35;0.75;;;0.40;;
32250;SDS011;41295;48.518;9.206;2023-05-10T02:12:41;1.05;;;0.38;;
32250;SDS011;41295;48.518;9.206;2023-05-10T02:14:45;0.57;;;0.40;;
32250;SDS011;41295;48.518;9.206;2023-05-10T02:16:49;2.10;;;0.40;;
32250;SDS011;41295;48.518;9.206;2023-05-10T02:18:54;0.28;;;0.25;;
32250;SDS011;41295;48.518;9.206;2023-05-10T02:21:00;2.55;;;0.30;;
32250;SDS011;41295;48.518;9.206;2023-05-10T02:23:04;0.63;;;0.30;;
32250;SDS011;41295;48.518;9.206;2023-05-10T02:25:09;0.25;;;0.25;;
32250;SDS011;41295;48.518;9.206;2023-05-10T02:27:15;0.57;;;0.40;;
32250;SDS011;41295;48.518;9.206;2023-05-10T02:29:19;0.98;;;0.38;;
32250;SDS011;41295;48.518;9.206;2023-05-10T02:31:24;0.30;;;0.30;;
32250;SDS011;41295;48.518;9.206;2023-05-10T02:33:27;3.50;;;1.65;;
32250;SDS011;41295;48.518;9.206;2023-05-10T02:35:33;22.52;;;1.67;;
32250;SDS011;41295;48.518;9.206;2023-05-10T02:37:38;3.92;;;0.40;;
32250;SDS011;41295;48.518;9.206;2023-05-10T02:39:42;0.95;;;0.38;;
32250;SDS011;41295;48.518;9.206;2023-05-10T02:41:46;2.17;;;0.40;;
32250;SDS011;41295;48.518;9.206;2023-05-10T02:43:51;1.02;;;0.38;;
32250;SDS011;41295;48.518;9.206;2023-05-10T02:45:58;2.45;;;0.50;;
32250;SDS011;41295;48.518;9.206;2023-05-10T02:48:00;2.72;;;0.30;;
32250;SDS011;41295;48.518;9.206;2023-05-10T02:50:04;2.63;;;0.45;;
32250;SDS011;41295;48.518;9.206;2023-05-10T02:52:07;2.65;;;0.50;;
32250;SDS011;41295;48.518;9.206;2023-05-10T02:54:13;2.25;;;0.40;;
32250;SDS011;41295;48.518;9.206;2023-05-10T02:56:23;9.93;;;1.13;;
32250;SDS011;41295;48.518;9.206;2023-05-10T02:58:30;0.30;;;0.30;;
32250;SDS011;41295;48.518;9.206;2023-05-10T03:00:33;3.40;;;0.52;;
32250;SDS011;41295;48.518;9.206;2023-05-10T03:02:37;0.40;;;0.40;;
32250;SDS011;41295;48.518;9.206;2023-05-10T03:04:40;0.40;;;0.40;;
32250;SDS011;41295;48.518;9.206;2023-05-10T03:06:42;1.33;;;0.47;;
32250;SDS011;41295;48.518;9.206;2023-05-10T03:08:45;3.42;;;0.50;;
32250;SDS011;41295;48.518;9.206;2023-05-10T03:10:54;2.80;;;0.70;;
32250;SDS011;41295;48.518;9.206;2023-05-10T03:13:06;2.38;;;0.40;;
32250;SDS011;41295;48.518;9.206;2023-05-10T03:15:17;2.05;;;0.77;;
32250;SDS011;41295;48.518;9.206;2023-05-10T03:17:25;2.80;;;0.80;;
32250;SDS011;41295;48.518;9.206;2023-05-10T03:19:34;0.60;;;0.50;;
32250;SDS011;41295;48.518;9.206;2023-05-10T03:23:50;2.25;;;0.50;;
32250;SDS011;41295;48.518;9.206;2023-05-10T03:25:58;1.65;;;0.65;;
32250;SDS011;41295;48.518;9.206;2023-05-10T03:28:02;2.13;;;0.52;;
32250;SDS011;41295;48.518;9.206;2023-05-10T03:30:07;2.88;;;0.60;;
32250;SDS011;41295;48.518;9.206;2023-05-10T03:32:12;5.38;;;0.70;;
32250;SDS011;41295;48.518;9.206;2023-05-10T03:34:15;1.10;;;0.60;;
32250;SDS011;41295;48.518;9.206;2023-05-10T03:36:18;4.97;;;0.70;;
32250;SDS011;41295;48.518;9.206;2023-05-10T03:38:21;0.90;;;0.68;;
32250;SDS011;41295;48.518;9.206;2023-05-10T03:42:27;1.05;;;0.95;;
32250;SDS011;41295;48.518;9.206;2023-05-10T03:44:29;3.17;;;0.68;;
32250;SDS011;41295;48.518;9.206;2023-05-10T03:46:32;4.68;;;0.50;;
32250;SDS011;41295;48.518;9.206;2023-05-10T03:48:35;0.65;;;0.60;;
32250;SDS011;41295;48.518;9.206;2023-05-10T03:50:37;1.60;;;0.80;;
32250;SDS011;41295;48.518;9.206;2023-05-10T03:52:40;2.97;;;0.80;;
32250;SDS011;41295;48.518;9.206;2023-05-10T03:54:42;1.17;;;0.82;;
32250;SDS011;41295;48.518;9.206;2023-05-10T03:56:48;1.95;;;0.70;;
32250;SDS011;41295;48.518;9.206;2023-05-10T03:58:51;2.80;;;0.77;;
32250;SDS011;41295;48.518;9.206;2023-05-10T04:00:54;1.45;;;0.57;;
32250;SDS011;41295;48.518;9.206;2023-05-10T04:02:57;2.47;;;0.50;;
32250;SDS011;41295;48.518;9.206;2023-05-10T04:04:59;3.30;;;0.75;;
32250;SDS011;41295;48.518;9.206;2023-05-10T04:07:02;0.80;;;0.80;;
32250;SDS011;41295;48.518;9.206;2023-05-10T04:09:05;5.80;;;1.02;;
32250;SDS011;41295;48.518;9.206;2023-05-10T04:11:08;4.20;;;0.80;;
32250;SDS011;41295;48.518;9.206;2023-05-10T04:13:11;2.03;;;1.00;;
32250;SDS011;41295;48.518;9.206;2023-05-10T04:15:15;1.63;;;0.77;;
32250;SDS011;41295;48.518;9.206;2023-05-10T04:17:18;11.05;;;1.10;;
32250;SDS011;41295;48.518;9.206;2023-05-10T04:19:21;2.03;;;0.70;;
32250;SDS011;41295;48.518;9.206;2023-05-10T04:21:23;3.83;;;0.90;;
32250;SDS011;41295;48.518;9.206;2023-05-10T04:23:26;3.88;;;0.98;;
32250;SDS011;41295;48.518;9.206;2023-05-10T04:25:29;2.28;;;0.90;;
32250;SDS011;41295;48.518;9.206;2023-05-10T04:27:31;3.70;;;0.90;;
32250;SDS011;41295;48.518;9.206;2023-05-10T04:29:34;1.10;;;0.60;;
32250;SDS011;41295;48.518;9.206;2023-05-10T04:31:38;2.88;;;0.77;;
32250;SDS011;41295;48.518;9.206;2023-05-10T04:33:40;2.20;;;0.93;;
32250;SDS011;41295;48.518;9.206;2023-05-10T04:35:43;3.50;;;1.10;;
32250;SDS011;41295;48.518;9.206;2023-05-10T04:37:46;2.00;;;1.08;;
32250;SDS011;41295;48.518;9.206;2023-05-10T04:39:49;5.85;;;1.23;;
32250;SDS011;41295;48.518;9.206;2023-05-10T04:41:51;2.88;;;1.00;;
32250;SDS011;41295;48.518;9.206;2023-05-10T04:43:54;1.38;;;0.70;;
32250;SDS011;41295;48.518;9.206;2023-05-10T04:45:56;2.70;;;0.90;;
32250;SDS011;41295;48.518;9.206;2023-05-10T04:48:00;1.17;;;0.80;;
32250;SDS011;41295;48.518;9.206;2023-05-10T04:50:03;1.13;;;0.90;;
32250;SDS011;41295;48.518;9.206;2023-05-10T04:52:07;4.03;;;0.70;;
32250;SDS011;41295;48.518;9.206;2023-05-10T04:54:10;2.25;;;0.90;;
32250;SDS011;41295;48.518;9.206;2023-05-10T04:56:12;3.75;;;1.00;;
32250;SDS011;41295;48.518;9.206;2023-05-10T04:58:15;3.13;;;0.75;;
32250;SDS011;41295;48.518;9.206;2023-05-10T05:00:18;2.25;;;0.77;;
32250;SDS011;41295;48.518;9.206;2023-05-10T05:02:21;1.10;;;0.70;;
32250;SDS011;41295;48.518;9.206;2023-05-10T05:04:26;1.23;;;1.00;;
32250;SDS011;41295;48.518;9.206;2023-05-10T05:06:28;3.70;;;0.70;;
32250;SDS011;41295;48.518;9.206;2023-05-10T05:08:31;6.05;;;1.20;;
32250;SDS011;41295;48.518;9.206;2023-05-10T05:10:34;1.08;;;0.98;;
32250;SDS011;41295;48.518;9.206;2023-05-10T05:12:36;2.67;;;1.38;;
32250;SDS011;41295;48.518;9.206;2023-05-10T05:14:39;5.25;;;0.98;;
32250;SDS011;41295;48.518;9.206;2023-05-10T05:16:42;3.58;;;0.85;;
32250;SDS011;41295;48.518;9.206;2023-05-10T05:18:45;1.88;;;0.85;;
32250;SDS011;41295;48.518;9.206;2023-05-10T05:20:48;2.42;;;1.00;;
32250;SDS011;41295;48.518;9.206;2023-05-10T05:22:51;5.70;;;1.08;;
32250;SDS011;41295;48.518;9.206;2023-05-10T05:24:54;1.65;;;0.98;;
32250;SDS011;41295;48.518;9.206;2023-05-10T05:26:56;7.35;;;1.00;;
32250;SDS011;41295;48.518;9.206;2023-05-10T05:28:59;4.25;;;1.20;;
32250;SDS011;41295;48.518;9.206;2023-05-10T05:31:01;5.07;;;1.33;;
32250;SDS011;41295;48.518;9.206;2023-05-10T05:33:04;1.15;;;1.05;;
32250;SDS011;41295;48.518;9.206;2023-05-10T05:35:07;3.00;;;1.25;;
32250;SDS011;41295;48.518;9.206;2023-05-10T05:37:13;2.20;;;1.10;;
32250;SDS011;41295;48.518;9.206;2023-05-10T05:39:16;3.22;;;1.00;;
32250;SDS011;41295;48.518;9.206;2023-05-10T05:41:19;1.90;;;0.98;;
32250;SDS011;41295;48.518;9.206;2023-05-10T05:43:22;5.85;;;1.27;;
32250;SDS011;41295;48.518;9.206;2023-05-10T05:45:25;4.00;;;0.90;;
32250;SDS011;41295;48.518;9.206;2023-05-10T05:47:28;2.67;;;1.20;;
32250;SDS011;41295;48.518;9.206;2023-05-10T05:49:31;3.63;;;1.10;;
32250;SDS011;41295;48.518;9.206;2023-05-10T05:51:34;8.20;;;1.60;;
32250;SDS011;41295;48.518;9.206;2023-05-10T05:53:38;4.80;;;1.10;;
32250;SDS011;41295;48.518;9.206;2023-05-10T05:55:40;4.95;;;1.38;;
32250;SDS011;41295;48.518;9.206;2023-05-10T05:57:52;2.67;;;1.13;;
32250;SDS011;41295;48.518;9.206;2023-05-10T05:59:55;6.07;;;1.30;;
32250;SDS011;41295;48.518;9.206;2023-05-10T06:01:58;2.70;;;1.15;;
32250;SDS011;41295;48.518;9.206;2023-05-10T06:04:01;1.77;;;1.02;;
32250;SDS011;41295;48.518;9.206;2023-05-10T06:06:05;3.90;;;1.58;;
32250;SDS011;41295;48.518;9.206;2023-05-10T06:08:07;6.35;;;1.30;;
32250;SDS011;41295;48.518;9.206;2023-05-10T06:10:11;2.17;;;1.05;;
32250;SDS011;41295;48.518;9.206;2023-05-10T06:12:14;2.97;;;1.73;;
32250;SDS011;41295;48.518;9.206;2023-05-10T06:14:17;6.93;;;1.70;;
32250;SDS011;41295;48.518;9.206;2023-05-10T06:16:19;1.30;;;1.20;;
32250;SDS011;41295;48.518;9.206;2023-05-10T06:18:22;1.73;;;1.20;;
32250;SDS011;41295;48.518;9.206;2023-05-10T06:20:24;3.30;;;1.20;;
32250;SDS011;41295;48.518;9.206;2023-05-10T06:22:27;3.67;;;1.48;;
32250;SDS011;41295;48.518;9.206;2023-05-10T06:24:30;3.45;;;1.25;;
32250;SDS011;41295;48.518;9.206;2023-05-10T06:26:34;2.05;;;1.08;;
32250;SDS011;41295;48.518;9.206;2023-05-10T06:28:36;4.18;;;1.00;;
32250;SDS011;41295;48.518;9.206;2023-05-10T06:30:40;1.73;;;1.35;;
32250;SDS011;41295;48.518;9.206;2023-05-10T06:32:42;2.33;;;1.67;;
32250;SDS011;41295;48.518;9.206;2023-05-10T06:34:46;4.38;;;1.38;;
32250;SDS011;41295;48.518;9.206;2023-05-10T06:36:48;4.13;;;1.45;;
32250;SDS011;41295;48.518;9.206;2023-05-10T06:38:51;3.80;;;1.67;;
32250;SDS011;41295;48.518;9.206;2023-05-10T06:40:54;2.80;;;1.33;;
32250;SDS011;41295;48.518;9.206;2023-05-10T06:42:58;5.32;;;1.13;;
32250;SDS011;41295;48.518;9.206;2023-05-10T06:45:00;2.35;;;1.20;;
32250;SDS011;41295;48.518;9.206;2023-05-10T06:47:03;3.85;;;1.27;;
32250;SDS011;41295;48.518;9.206;2023-05-10T06:49:06;3.00;;;1.02;;
32250;SDS011;41295;48.518;9.206;2023-05-10T06:51:08;1.33;;;1.20;;
32250;SDS011;41295;48.518;9.206;2023-05-10T06:53:11;2.15;;;1.27;;
32250;SDS011;41295;48.518;9.206;2023-05-10T06:55:14;2.10;;;1.25;;
32250;SDS011;41295;48.518;9.206;2023-05-10T06:57:17;1.20;;;0.80;;
32250;SDS011;41295;48.518;9.206;2023-05-10T06:59:33;3.63;;;0.90;;
32250;SDS011;41295;48.518;9.206;2023-05-10T07:01:37;2.78;;;1.20;;
32250;SDS011;41295;48.518;9.206;2023-05-10T07:03:40;3.38;;;1.40;;
32250;SDS011;41295;48.518;9.206;2023-05-10T07:05:42;2.00;;;1.10;;
32250;SDS011;41295;48.518;9.206;2023-05-10T07:07:45;4.45;;;1.00;;
32250;SDS011;41295;48.518;9.206;2023-05-10T07:09:47;1.35;;;1.02;;
32250;SDS011;41295;48.518;9.206;2023-05-10T07:11:51;1.63;;;1.13;;
32250;SDS011;41295;48.518;9.206;2023-05-10T07:13:53;2.13;;;1.00;;
32250;SDS011;41295;48.518;9.206;2023-05-10T07:15:57;2.60;;;1.10;;
32250;SDS011;41295;48.518;9.206;2023-05-10T07:18:00;2.35;;;0.98;;
32250;SDS011;41295;48.518;9.206;2023-05-10T07:20:03;5.72;;;1.17;;
32250;SDS011;41295;48.518;9.206;2023-05-10T07:22:07;1.60;;;0.90;;
32250;SDS011;41295;48.518;9.206;2023-05-10T07:24:09;3.38;;;0.93;;
32250;SDS011;41295;48.518;9.206;2023-05-10T07:26:12;1.40;;;0.80;;
32250;SDS011;41295;48.518;9.206;2023-05-10T07:28:16;3.80;;;0.98;;
32250;SDS011;41295;48.518;9.206;2023-05-10T07:30:18;1.15;;;0.70;;
32250;SDS011;41295;48.518;9.206;2023-05-10T07:32:22;1.08;;;0.98;;
32250;SDS011;41295;48.518;9.206;2023-05-10T07:34:25;1.33;;;0.90;;
32250;SDS011;41295;48.518;9.206;2023-05-10T07:36:28;5.50;;;1.02;;
32250;SDS011;41295;48.518;9.206;2023-05-10T07:38:33;1.90;;;1.17;;
32250;SDS011;41295;48.518;9.206;2023-05-10T07:40:35;1.20;;;1.00;;
32250;SDS011;41295;48.518;9.206;2023-05-10T07:42:38;3.00;;;1.00;;
32250;SDS011;41295;48.518;9.206;2023-05-10T07:44:41;2.05;;;1.17;;
32250;SDS011;41295;48.518;9.206;2023-05-10T07:46:44;1.20;;;0.70;;
32250;SDS011;41295;48.518;9.206;2023-05-10T07:48:48;2.70;;;0.93;;
32250;SDS011;41295;48.518;9.206;2023-05-10T07:50:50;2.40;;;1.00;;
32250;SDS011;41295;48.518;9.206;2023-05-10T07:52:53;2.42;;;1.00;;
32250;SDS011;41295;48.518;9.206;2023-05-10T07:54:56;2.42;;;0.95;;
32250;SDS011;41295;48.518;9.206;2023-05-10T07:56:59;2.88;;;1.00;;
32250;SDS011;41295;48.518;9.206;2023-05-10T07:59:03;1.08;;;0.90;;
32250;SDS011;41295;48.518;9.206;2023-05-10T08:01:06;3.10;;;1.10;;
32250;SDS011;41295;48.518;9.206;2023-05-10T08:03:08;1.95;;;0.93;;
32250;SDS011;41295;48.518;9.206;2023-05-10T08:05:13;3.13;;;0.75;;
32250;SDS011;41295;48.518;9.206;2023-05-10T08:07:16;1.70;;;1.00;;
32250;SDS011;41295;48.518;9.206;2023-05-10T08:09:19;3.30;;;0.95;;
32250;SDS011;41295;48.518;9.206;2023-05-10T08:11:25;1.35;;;0.90;;
32250;SDS011;41295;48.518;9.206;2023-05-10T08:13:28;1.65;;;1.00;;
32250;SDS011;41295;48.518;9.206;2023-05-10T08:15:32;1.45;;;0.90;;
32250;SDS011;41295;48.518;9.206;2023-05-10T08:17:35;3.33;;;0.75;;
32250;SDS011;41295;48.518;9.206;2023-05-10T08:19:37;4.15;;;1.00;;
32250;SDS011;41295;48.518;9.206;2023-05-10T08:21:42;1.23;;;1.00;;
32250;SDS011;41295;48.518;9.206;2023-05-10T08:23:44;2.58;;;0.90;;
32250;SDS011;41295;48.518;9.206;2023-05-10T08:25:47;1.00;;;0.90;;
32250;SDS011;41295;48.518;9.206;2023-05-10T08:27:49;4.05;;;1.13;;
32250;SDS011;41295;48.518;9.206;2023-05-10T08:29:52;4.28;;;1.15;;
32250;SDS011;41295;48.518;9.206;2023-05-10T08:31:54;5.13;;;0.73;;
32250;SDS011;41295;48.518;9.206;2023-05-10T08:33:57;3.88;;;1.00;;
32250;SDS011;41295;48.518;9.206;2023-05-10T08:36:00;4.65;;;0.90;;
32250;SDS011;41295;48.518;9.206;2023-05-10T08:38:04;4.70;;;0.90;;
32250;SDS011;41295;48.518;9.206;2023-05-10T08:40:06;2.47;;;0.80;;
32250;SDS011;41295;48.518;9.206;2023-05-10T08:42:13;3.78;;;1.00;;
32250;SDS011;41295;48.518;9.206;2023-05-10T08:44:19;1.48;;;0.88;;
32250;SDS011;41295;48.518;9.206;2023-05-10T08:46:22;1.52;;;0.90;;
32250;SDS011;41295;48.518;9.206;2023-05-10T08:48:25;1.35;;;0.70;;
32250;SDS011;41295;48.518;9.206;2023-05-10T08:50:31;1.23;;;0.73;;
32250;SDS011;41295;48.518;9.206;2023-05-10T08:52:34;1.23;;;0.70;;
32250;SDS011;41295;48.518;9.206;2023-05-10T08:54:42;1.83;;;0.88;;
32250;SDS011;41295;48.518;9.206;2023-05-10T08:56:45;1.00;;;0.80;;
32250;SDS011;41295;48.518;9.206;2023-05-10T08:58:50;4.13;;;0.70;;
32250;SDS011;41295;48.518;9.206;2023-05-10T09:00:52;1.77;;;0.80;;
32250;SDS011;41295;48.518;9.206;2023-05-10T09:02:55;3.33;;;0.82;;
32250;SDS011;41295;48.518;9.206;2023-05-10T09:04:59;1.77;;;0.80;;
32250;SDS011;41295;48.518;9.206;2023-05-10T09:07:02;1.55;;;0.82;;
32250;SDS011;41295;48.518;9.206;2023-05-10T09:09:05;1.10;;;0.70;;
32250;SDS011;41295;48.518;9.206;2023-05-10T09:11:09;1.02;;;0.60;;
32250;SDS011;41295;48.518;9.206;2023-05-10T09:13:12;2.20;;;0.70;;
32250;SDS011;41295;48.518;9.206;2023-05-10T09:15:16;1.55;;;0.70;;
32250;SDS011;41295;48.518;9.206;2023-05-10T09:17:20;1.42;;;0.70;;
32250;SDS011;41295;48.518;9.206;2023-05-10T09:19:25;3.50;;;0.90;;
32250;SDS011;41295;48.518;9.206;2023-05-10T09:21:30;1.02;;;0.80;;
32250;SDS011;41295;48.518;9.206;2023-05-10T09:23:33;3.70;;;0.70;;
32250;SDS011;41295;48.518;9.206;2023-05-10T09:25:36;1.67;;;0.80;;
32250;SDS011;41295;48.518;9.206;2023-05-10T09:27:41;0.95;;;0.50;;
32250;SDS011;41295;48.518;9.206;2023-05-10T09:29:47;1.98;;;0.80;;
32250;SDS011;41295;48.518;9.206;2023-05-10T09:31:50;4.28;;;0.73;;
32250;SDS011;41295;48.518;9.206;2023-05-10T09:33:55;0.57;;;0.57;;
32250;SDS011;41295;48.518;9.206;2023-05-10T09:36:05;0.95;;;0.70;;
32250;SDS011;41295;48.518;9.206;2023-05-10T09:38:09;1.53;;;0.90;;
32250;SDS011;41295;48.518;9.206;2023-05-10T09:40:13;0.95;;;0.55;;
32250;SDS011;41295;48.518;9.206;2023-05-10T09:42:17;0.75;;;0.63;;
32250;SDS011;41295;48.518;9.206;2023-05-10T09:44:21;3.63;;;0.70;;
32250;SDS011;41295;48.518;9.206;2023-05-10T09:46:24;1.05;;;0.45;;
32250;SDS011;41295;48.518;9.206;2023-05-10T09:48:27;1.73;;;0.70;;
32250;SDS011;41295;48.518;9.206;2023-05-10T09:50:30;1.38;;;0.60;;
32250;SDS011;41295;48.518;9.206;2023-05-10T09:52:45;1.60;;;0.52;;
32250;SDS011;41295;48.518;9.206;2023-05-10T09:54:52;1.27;;;0.55;;
32250;SDS011;41295;48.518;9.206;2023-05-10T09:56:55;1.40;;;0.50;;
32250;SDS011;41295;48.518;9.206;2023-05-10T09:59:01;2.30;;;0.80;;
32250;SDS011;41295;48.518;9.206;2023-05-10T10:01:06;1.25;;;0.40;;
32250;SDS011;41295;48.518;9.206;2023-05-10T10:03:13;2.35;;;0.50;;
32250;SDS011;41295;48.518;9.206;2023-05-10T10:05:17;1.10;;;0.68;;
32250;SDS011;41295;48.518;9.206;2023-05-10T10:07:22;0.50;;;0.50;;
32250;SDS011;41295;48.518;9.206;2023-05-10T10:09:26;1.00;;;0.50;;
32250;SDS011;41295;48.518;9.206;2023-05-10T10:11:29;1.25;;;0.60;;
32250;SDS011;41295;48.518;9.206;2023-05-10T10:13:32;2.00;;;0.50;;
32250;SDS011;41295;48.518;9.206;2023-05-10T10:15:34;2.47;;;0.60;;
32250;SDS011;41295;48.518;9.206;2023-05-10T10:17:39;0.95;;;0.40;;
32250;SDS011;41295;48.518;9.206;2023-05-10T10:19:43;1.83;;;0.60;;
32250;SDS011;41295;48.518;9.206;2023-05-10T10:21:46;2.40;;;0.63;;
32250;SDS011;41295;48.518;9.206;2023-05-10T10:23:49;1.38;;;0.80;;
32250;SDS011;41295;48.518;9.206;2023-05-10T10:25:52;1.38;;;0.73;;
32250;SDS011;41295;48.518;9.206;2023-05-10T10:28:01;13.77;;;1.08;;
32250;SDS011;41295;48.518;9.206;2023-05-10T10:30:15;2.47;;;0.85;;
32250;SDS011;41295;48.518;9.206;2023-05-10T10:32:27;1.38;;;0.70;;
32250;SDS011;41295;48.518;9.206;2023-05-10T10:34:39;1.17;;;0.70;;
32250;SDS011;41295;48.518;9.206;2023-05-10T10:36:43;1.45;;;0.70;;
32250;SDS011;41295;48.518;9.206;2023-05-10T10:38:57;1.77;;;0.98;;
32250;SDS011;41295;48.518;9.206;2023-05-10T10:41:09;0.70;;;0.70;;
32250;SDS011;41295;48.518;9.206;2023-05-10T10:43:22;0.73;;;0.70;;
32250;SDS011;41295;48.518;9.206;2023-05-10T10:45:26;1.25;;;0.70;;
32250;SDS011;41295;48.518;9.206;2023-05-10T10:47:31;1.15;;;0.60;;
32250;SDS011;41295;48.518;9.206;2023-05-10T10:49:38;2.45;;;0.70;;
32250;SDS011;41295;48.518;9.206;2023-05-10T10:54:26;2.13;;;1.00;;
32250;SDS011;41295;48.518;9.206;2023-05-10T10:56:30;1.30;;;0.73;;
32250;SDS011;41295;48.518;9.206;2023-05-10T10:58:35;1.30;;;0.73;;
32250;SDS011;41295;48.518;9.206;2023-05-10T11:00:39;0.70;;;0.70;;
32250;SDS011;41295;48.518;9.206;2023-05-10T11:02:45;1.98;;;0.65;;
32250;SDS011;41295;48.518;9.206;2023-05-10T11:04:51;0.75;;;0.60;;
32250;SDS011;41295;48.518;9.206;2023-05-10T11:07:00;1.50;;;0.80;;
32250;SDS011;41295;48.518;9.206;2023-05-10T11:09:18;1.88;;;1.00;;
32250;SDS011;41295;48.518;9.206;2023-05-10T11:11:21;1.33;;;0.98;;
32250;SDS011;41295;48.518;9.206;2023-05-10T11:13:28;0.93;;;0.65;;
32250;SDS011;41295;48.518;9.206;2023-05-10T11:15:31;0.80;;;0.77;;
32250;SDS011;41295;48.518;9.206;2023-05-10T11:17:35;3.15;;;0.80;;
32250;SDS011;41295;48.518;9.206;2023-05-10T11:19:38;4.20;;;0.98;;
32250;SDS011;41295;48.518;9.206;2023-05-10T11:22:12;3.40;;;0.40;;
32250;SDS011;41295;48.518;9.206;2023-05-10T11:24:15;1.98;;;0.30;;
32250;SDS011;41295;48.518;9.206;2023-05-10T11:26:19;1.42;;;0.55;;
32250;SDS011;41295;48.518;9.206;2023-05-10T11:28:24;2.65;;;0.57;;
32250;SDS011;41295;48.518;9.206;2023-05-10T11:30:29;4.68;;;0.77;;
32250;SDS011;41295;48.518;9.206;2023-05-10T11:32:33;4.25;;;0.50;;
32250;SDS011;41295;48.518;9.206;2023-05-10T11:34:35;0.85;;;0.40;;
32250;SDS011;41295;48.518;9.206;2023-05-10T11:36:39;2.45;;;0.55;;
32250;SDS011;41295;48.518;9.206;2023-05-10T11:38:42;2.50;;;0.50;;
32250;SDS011;41295;48.518;9.206;2023-05-10T11:40:45;1.02;;;0.38;;
32250;SDS011;41295;48.518;9.206;2023-05-10T11:42:47;6.13;;;0.75;;
32250;SDS011;41295;48.518;9.206;2023-05-10T11:44:50;0.98;;;0.40;;
32250;SDS011;41295;48.518;9.206;2023-05-10T11:46:53;3.72;;;0.60;;
32250;SDS011;41295;48.518;9.206;2023-05-10T11:48:57;3.67;;;0.77;;
32250;SDS011;41295;48.518;9.206;2023-05-10T11:51:02;7.82;;;0.70;;
32250;SDS011;41295;48.518;9.206;2023-05-10T11:53:06;3.50;;;0.47;;
32250;SDS011;41295;48.518;9.206;2023-05-10T11:55:09;1.10;;;0.60;;
32250;SDS011;41295;48.518;9.206;2023-05-10T11:57:11;3.63;;;0.88;;
32250;SDS011;41295;48.518;9.206;2023-05-10T11:59:14;4.07;;;0.60;;
32250;SDS011;41295;48.518;9.206;2023-05-10T12:01:17;1.70;;;0.70;;
32250;SDS011;41295;48.518;9.206;2023-05-10T12:03:19;3.80;;;0.70;;
32250;SDS011;41295;48.518;9.206;2023-05-10T12:05:22;3.17;;;0.70;;
32250;SDS011;41295;48.518;9.206;2023-05-10T12:07:26;5.88;;;0.82;;
32250;SDS011;41295;48.518;9.206;2023-05-10T12:09:30;1.30;;;0.80;;
32250;SDS011;41295;48.518;9.206;2023-05-10T12:11:44;4.25;;;0.95;;
32250;SDS011;41295;48.518;9.206;2023-05-10T12:13:47;3.08;;;1.00;;
32250;SDS011;41295;48.518;9.206;2023-05-10T12:15:50;3.47;;;0.80;;
32250;SDS011;41295;48.518;9.206;2023-05-10T12:17:53;3.63;;;0.98;;
32250;SDS011;41295;48.518;9.206;2023-05-10T12:19:58;1.58;;;0.80;;
32250;SDS011;41295;48.518;9.206;2023-05-10T12:22:04;3.53;;;1.40;;
32250;SDS011;41295;48.518;9.206;2023-05-10T12:24:07;5.43;;;1.10;;
32250;SDS011;41295;48.518;9.206;2023-05-10T12:26:11;6.13;;;1.20;;
32250;SDS011;41295;48.518;9.206;2023-05-10T12:28:13;2.38;;;0.80;;
32250;SDS011;41295;48.518;9.206;2023-05-10T12:30:20;4.00;;;0.88;;
32250;SDS011;41295;48.518;9.206;2023-05-10T12:32:36;4.88;;;0.98;;
32250;SDS011;41295;48.518;9.206;2023-05-10T12:34:39;2.78;;;1.10;;
32250;SDS011;41295;48.518;9.206;2023-05-10T12:36:42;8.00;;;0.75;;
32250;SDS011;41295;48.518;9.206;2023-05-10T12:38:45;3.88;;;0.98;;